sensor_id;sensor_type;location;lat;lon;timestamp;P1;durP1;ratioP1;P2;durP2;ratioP2
62808;SDS011;48848;39.002;-94.584;2022-09-09T00:03:38;1.38;;;0.90;;
62808;SDS011;48848;39.002;-94.584;2022-09-09T00:06:43;1.88;;;1.00;;
62808;SDS011;48848;39.002;-94.584;2022-09-09T00:09:29;0.98;;;0.85;;
62808;SDS011;48848;39.002;-94.584;2022-09-09T00:15:11;1.23;;;0.90;;
62808;SDS011;48848;39.002;-94.584;2022-09-09T00:20:39;3.28;;;1.08;;
62808;SDS011;48848;39.002;-94.584;2022-09-09T00:28:27;2.05;;;0.88;;
62808;SDS011;48848;39.002;-94.584;2022-09-09T00:31:02;1.75;;;1.00;;
62808;SDS011;48848;39.002;-94.584;2022-09-09T00:33:36;1.27;;;0.90;;
62808;SDS011;48848;39.002;-94.584;2022-09-09T00:36:07;1.00;;;0.80;;
62808;SDS011;48848;39.002;-94.584;2022-09-09T00:39:02;1.27;;;0.90;;
62808;SDS011;48848;39.002;-94.584;2022-09-09T00:47:06;3.65;;;0.80;;
62808;SDS011;48848;39.002;-94.584;2022-09-09T00:52:56;1.20;;;0.82;;
62808;SDS011;48848;39.002;-94.584;2022-09-09T00:55:39;0.90;;;0.75;;
62808;SDS011;48848;39.002;-94.584;2022-09-09T00:58:13;1.10;;;0.80;;
62808;SDS011;48848;39.002;-94.584;2022-09-09T01:05:40;1.23;;;0.90;;
62808;SDS011;48848;39.002;-94.584;2022-09-09T01:11:00;1.40;;;0.85;;
62808;SDS011;48848;39.002;-94.584;2022-09-09T01:13:33;0.82;;;0.80;;
62808;SDS011;48848;39.002;-94.584;2022-09-09T01:16:02;1.00;;;0.90;;
62808;SDS011;48848;39.002;-94.584;2022-09-09T01:18:52;1.25;;;1.00;;
62808;SDS011;48848;39.002;-94.584;2022-09-09T01:24:22;1.38;;;0.90;;
62808;SDS011;48848;39.002;-94.584;2022-09-09T01:27:05;1.17;;;0.90;;
62808;SDS011;48848;39.002;-94.584;2022-09-09T01:29:33;1.27;;;0.98;;
62808;SDS011;48848;39.002;-94.584;2022-09-09T01:32:00;1.40;;;1.00;;
62808;SDS011;48848;39.002;-94.584;2022-09-09T01:34:36;1.30;;;1.00;;
62808;SDS011;48848;39.002;-94.584;2022-09-09T01:37:10;1.17;;;0.90;;
62808;SDS011;48848;39.002;-94.584;2022-09-09T01:39:38;5.18;;;0.90;;
62808;SDS011;48848;39.002;-94.584;2022-09-09T01:42:06;3.35;;;1.00;;
62808;SDS011;48848;39.002;-94.584;2022-09-09T01:44:35;2.80;;;0.93;;
62808;SDS011;48848;39.002;-94.584;2022-09-09T01:47:02;4.20;;;1.00;;
62808;SDS011;48848;39.002;-94.584;2022-09-09T01:49:29;1.88;;;0.95;;
62808;SDS011;48848;39.002;-94.584;2022-09-09T01:51:56;2.63;;;0.82;;
62808;SDS011;48848;39.002;-94.584;2022-09-09T01:54:24;1.35;;;1.00;;
62808;SDS011;48848;39.002;-94.584;2022-09-09T02:02:35;6.75;;;1.00;;
62808;SDS011;48848;39.002;-94.584;2022-09-09T02:05:36;1.27;;;0.88;;
62808;SDS011;48848;39.002;-94.584;2022-09-09T02:08:08;1.50;;;1.00;;
62808;SDS011;48848;39.002;-94.584;2022-09-09T02:18:47;1.05;;;0.85;;
62808;SDS011;48848;39.002;-94.584;2022-09-09T02:21:35;1.42;;;1.00;;
62808;SDS011;48848;39.002;-94.584;2022-09-09T02:24:03;1.30;;;1.00;;
62808;SDS011;48848;39.002;-94.584;2022-09-09T02:26:35;1.83;;;1.10;;
62808;SDS011;48848;39.002;-94.584;2022-09-09T02:29:08;1.63;;;1.10;;
62808;SDS011;48848;39.002;-94.584;2022-09-09T02:31:59;1.23;;;0.93;;
62808;SDS011;48848;39.002;-94.584;2022-09-09T02:34:29;1.63;;;1.07;;
62808;SDS011;48848;39.002;-94.584;2022-09-09T02:36:57;1.10;;;0.80;;
62808;SDS011;48848;39.002;-94.584;2022-09-09T02:39:26;1.30;;;0.90;;
62808;SDS011;48848;39.002;-94.584;2022-09-09T02:41:52;1.48;;;1.00;;
62808;SDS011;48848;39.002;-94.584;2022-09-09T02:44:19;1.10;;;0.90;;
62808;SDS011;48848;39.002;-94.584;2022-09-09T02:57:54;1.33;;;0.90;;
62808;SDS011;48848;39.002;-94.584;2022-09-09T03:00:23;1.42;;;0.90;;
62808;SDS011;48848;39.002;-94.584;2022-09-09T03:02:50;1.45;;;1.00;;
62808;SDS011;48848;39.002;-94.584;2022-09-09T03:05:16;1.30;;;0.90;;
62808;SDS011;48848;39.002;-94.584;2022-09-09T03:07:43;3.75;;;1.02;;
62808;SDS011;48848;39.002;-94.584;2022-09-09T03:10:09;1.13;;;0.90;;
62808;SDS011;48848;39.002;-94.584;2022-09-09T03:12:35;1.77;;;1.08;;
62808;SDS011;48848;39.002;-94.584;2022-09-09T03:15:01;1.17;;;0.90;;
62808;SDS011;48848;39.002;-94.584;2022-09-09T03:17:28;1.88;;;1.00;;
62808;SDS011;48848;39.002;-94.584;2022-09-09T03:19:54;1.30;;;0.88;;
62808;SDS011;48848;39.002;-94.584;2022-09-09T03:22:22;1.48;;;0.93;;
62808;SDS011;48848;39.002;-94.584;2022-09-09T03:24:49;1.50;;;0.90;;
62808;SDS011;48848;39.002;-94.584;2022-09-09T03:27:15;1.45;;;1.00;;
62808;SDS011;48848;39.002;-94.584;2022-09-09T03:29:42;1.20;;;0.90;;
62808;SDS011;48848;39.002;-94.584;2022-09-09T03:32:10;1.60;;;1.00;;
62808;SDS011;48848;39.002;-94.584;2022-09-09T03:34:37;3.53;;;0.90;;
62808;SDS011;48848;39.002;-94.584;2022-09-09T03:37:06;1.70;;;1.10;;
62808;SDS011;48848;39.002;-94.584;2022-09-09T03:39:32;1.20;;;0.80;;
62808;SDS011;48848;39.002;-94.584;2022-09-09T03:41:58;2.63;;;0.90;;
62808;SDS011;48848;39.002;-94.584;2022-09-09T03:44:25;1.40;;;0.88;;
62808;SDS011;48848;39.002;-94.584;2022-09-09T03:46:51;1.98;;;1.10;;
62808;SDS011;48848;39.002;-94.584;2022-09-09T03:49:17;1.15;;;0.90;;
62808;SDS011;48848;39.002;-94.584;2022-09-09T03:51:45;1.13;;;0.80;;
62808;SDS011;48848;39.002;-94.584;2022-09-09T03:54:11;1.83;;;1.17;;
62808;SDS011;48848;39.002;-94.584;2022-09-09T03:56:37;1.15;;;0.90;;
62808;SDS011;48848;39.002;-94.584;2022-09-09T03:59:04;2.03;;;1.00;;
62808;SDS011;48848;39.002;-94.584;2022-09-09T04:01:30;1.65;;;1.00;;
62808;SDS011;48848;39.002;-94.584;2022-09-09T04:03:57;1.35;;;0.90;;
62808;SDS011;48848;39.002;-94.584;2022-09-09T04:06:23;2.17;;;1.10;;
62808;SDS011;48848;39.002;-94.584;2022-09-09T04:08:51;13.70;;;1.38;;
62808;SDS011;48848;39.002;-94.584;2022-09-09T04:11:17;10.57;;;1.13;;
62808;SDS011;48848;39.002;-94.584;2022-09-09T04:13:44;5.30;;;1.10;;
62808;SDS011;48848;39.002;-94.584;2022-09-09T04:16:11;6.40;;;1.10;;
62808;SDS011;48848;39.002;-94.584;2022-09-09T04:18:40;18.30;;;1.30;;
62808;SDS011;48848;39.002;-94.584;2022-09-09T04:21:07;4.00;;;1.07;;
62808;SDS011;48848;39.002;-94.584;2022-09-09T04:23:35;3.53;;;1.00;;
62808;SDS011;48848;39.002;-94.584;2022-09-09T04:26:02;8.15;;;1.23;;
62808;SDS011;48848;39.002;-94.584;2022-09-09T04:28:30;2.40;;;1.00;;
62808;SDS011;48848;39.002;-94.584;2022-09-09T04:31:07;1.70;;;1.00;;
62808;SDS011;48848;39.002;-94.584;2022-09-09T04:33:42;5.00;;;1.10;;
62808;SDS011;48848;39.002;-94.584;2022-09-09T04:48:19;2.65;;;1.10;;
62808;SDS011;48848;39.002;-94.584;2022-09-09T04:55:51;6.15;;;0.90;;
62808;SDS011;48848;39.002;-94.584;2022-09-09T04:58:26;1.88;;;1.10;;
62808;SDS011;48848;39.002;-94.584;2022-09-09T05:00:52;2.83;;;1.00;;
62808;SDS011;48848;39.002;-94.584;2022-09-09T05:03:18;2.90;;;1.20;;
62808;SDS011;48848;39.002;-94.584;2022-09-09T05:05:44;1.85;;;1.13;;
62808;SDS011;48848;39.002;-94.584;2022-09-09T05:08:10;1.50;;;1.00;;
62808;SDS011;48848;39.002;-94.584;2022-09-09T05:10:37;1.85;;;1.08;;
62808;SDS011;48848;39.002;-94.584;2022-09-09T05:13:05;1.48;;;0.98;;
62808;SDS011;48848;39.002;-94.584;2022-09-09T05:15:31;1.38;;;0.90;;
62808;SDS011;48848;39.002;-94.584;2022-09-09T05:17:58;1.40;;;1.00;;
62808;SDS011;48848;39.002;-94.584;2022-09-09T05:20:26;1.60;;;1.00;;
62808;SDS011;48848;39.002;-94.584;2022-09-09T05:25:22;2.05;;;1.10;;
62808;SDS011;48848;39.002;-94.584;2022-09-09T06:16:43;1.63;;;1.00;;
62808;SDS011;48848;39.002;-94.584;2022-09-09T06:19:09;1.90;;;1.05;;
62808;SDS011;48848;39.002;-94.584;2022-09-09T06:21:37;1.60;;;1.10;;
62808;SDS011;48848;39.002;-94.584;2022-09-09T06:26:31;1.85;;;1.00;;
62808;SDS011;48848;39.002;-94.584;2022-09-09T08:34:19;1.85;;;1.15;;
62808;SDS011;48848;39.002;-94.584;2022-09-09T08:36:47;1.55;;;1.10;;
62808;SDS011;48848;39.002;-94.584;2022-09-09T10:04:45;3.22;;;1.50;;
62808;SDS011;48848;39.002;-94.584;2022-09-09T10:07:12;2.75;;;1.60;;
62808;SDS011;48848;39.002;-94.584;2022-09-09T10:09:43;3.13;;;1.60;;
62808;SDS011;48848;39.002;-94.584;2022-09-09T10:15:06;1.90;;;1.30;;
62808;SDS011;48848;39.002;-94.584;2022-09-09T11:02:31;3.00;;;1.60;;
62808;SDS011;48848;39.002;-94.584;2022-09-09T11:07:40;3.13;;;1.30;;
62808;SDS011;48848;39.002;-94.584;2022-09-09T12:53:07;3.10;;;1.70;;
62808;SDS011;48848;39.002;-94.584;2022-09-09T14:12:17;4.10;;;1.80;;
62808;SDS011;48848;39.002;-94.584;2022-09-09T14:14:44;3.90;;;2.00;;
62808;SDS011;48848;39.002;-94.584;2022-09-09T14:17:10;2.97;;;1.80;;
62808;SDS011;48848;39.002;-94.584;2022-09-09T14:19:36;4.65;;;1.80;;
62808;SDS011;48848;39.002;-94.584;2022-09-09T14:22:02;4.28;;;1.70;;
62808;SDS011;48848;39.002;-94.584;2022-09-09T14:24:28;5.10;;;2.20;;
62808;SDS011;48848;39.002;-94.584;2022-09-09T14:26:55;3.50;;;1.80;;
62808;SDS011;48848;39.002;-94.584;2022-09-09T14:29:21;5.68;;;1.88;;
62808;SDS011;48848;39.002;-94.584;2022-09-09T14:31:47;4.75;;;2.17;;
62808;SDS011;48848;39.002;-94.584;2022-09-09T14:34:13;3.60;;;2.05;;
62808;SDS011;48848;39.002;-94.584;2022-09-09T14:36:39;4.47;;;2.05;;
62808;SDS011;48848;39.002;-94.584;2022-09-09T14:39:06;4.93;;;1.92;;
62808;SDS011;48848;39.002;-94.584;2022-09-09T14:41:33;3.92;;;1.95;;
62808;SDS011;48848;39.002;-94.584;2022-09-09T14:43:59;4.20;;;1.80;;
62808;SDS011;48848;39.002;-94.584;2022-09-09T14:46:25;5.57;;;1.85;;
62808;SDS011;48848;39.002;-94.584;2022-09-09T15:16:02;4.80;;;2.10;;
62808;SDS011;48848;39.002;-94.584;2022-09-09T16:00:06;21.98;;;2.25;;
62808;SDS011;48848;39.002;-94.584;2022-09-09T16:02:33;6.93;;;2.15;;
62808;SDS011;48848;39.002;-94.584;2022-09-09T16:04:59;5.53;;;1.92;;
62808;SDS011;48848;39.002;-94.584;2022-09-09T16:07:26;7.78;;;2.33;;
62808;SDS011;48848;39.002;-94.584;2022-09-09T16:09:52;4.57;;;1.98;;
62808;SDS011;48848;39.002;-94.584;2022-09-09T16:12:19;7.10;;;2.13;;
62808;SDS011;48848;39.002;-94.584;2022-09-09T16:14:46;4.93;;;2.15;;
62808;SDS011;48848;39.002;-94.584;2022-09-09T16:17:12;12.20;;;2.75;;
62808;SDS011;48848;39.002;-94.584;2022-09-09T16:19:40;7.65;;;2.83;;
62808;SDS011;48848;39.002;-94.584;2022-09-09T16:22:06;9.67;;;2.03;;
62808;SDS011;48848;39.002;-94.584;2022-09-09T16:29:25;4.70;;;2.10;;
62808;SDS011;48848;39.002;-94.584;2022-09-09T16:41:39;9.05;;;1.90;;
62808;SDS011;48848;39.002;-94.584;2022-09-09T16:44:07;4.47;;;2.00;;
62808;SDS011;48848;39.002;-94.584;2022-09-09T16:46:36;3.72;;;1.90;;
62808;SDS011;48848;39.002;-94.584;2022-09-09T16:49:04;5.35;;;1.98;;
62808;SDS011;48848;39.002;-94.584;2022-09-09T16:51:36;4.50;;;2.08;;
62808;SDS011;48848;39.002;-94.584;2022-09-09T16:54:05;3.92;;;2.25;;
62808;SDS011;48848;39.002;-94.584;2022-09-09T16:56:32;8.88;;;2.17;;
62808;SDS011;48848;39.002;-94.584;2022-09-09T16:59:03;5.22;;;1.90;;
62808;SDS011;48848;39.002;-94.584;2022-09-09T17:04:05;46.95;;;2.95;;
62808;SDS011;48848;39.002;-94.584;2022-09-09T17:06:36;6.67;;;1.87;;
62808;SDS011;48848;39.002;-94.584;2022-09-09T17:33:34;3.60;;;1.90;;
62808;SDS011;48848;39.002;-94.584;2022-09-09T17:36:05;7.78;;;2.20;;
62808;SDS011;48848;39.002;-94.584;2022-09-09T17:38:37;6.55;;;2.20;;
62808;SDS011;48848;39.002;-94.584;2022-09-09T17:41:05;4.20;;;2.10;;
62808;SDS011;48848;39.002;-94.584;2022-09-09T17:43:33;6.07;;;1.98;;
62808;SDS011;48848;39.002;-94.584;2022-09-09T17:46:11;6.15;;;1.90;;
62808;SDS011;48848;39.002;-94.584;2022-09-09T17:48:39;10.02;;;2.10;;
62808;SDS011;48848;39.002;-94.584;2022-09-09T17:51:08;10.40;;;2.20;;
62808;SDS011;48848;39.002;-94.584;2022-09-09T17:53:41;5.38;;;2.20;;
62808;SDS011;48848;39.002;-94.584;2022-09-09T17:58:36;8.90;;;2.33;;
62808;SDS011;48848;39.002;-94.584;2022-09-09T18:01:03;7.57;;;2.13;;
62808;SDS011;48848;39.002;-94.584;2022-09-09T18:03:35;5.65;;;2.00;;
62808;SDS011;48848;39.002;-94.584;2022-09-09T18:06:03;10.52;;;2.10;;
62808;SDS011;48848;39.002;-94.584;2022-09-09T18:08:30;3.65;;;2.17;;
62808;SDS011;48848;39.002;-94.584;2022-09-09T18:10:58;5.53;;;2.13;;
62808;SDS011;48848;39.002;-94.584;2022-09-09T18:13:25;3.60;;;2.30;;
62808;SDS011;48848;39.002;-94.584;2022-09-09T18:15:52;5.15;;;2.40;;
62808;SDS011;48848;39.002;-94.584;2022-09-09T18:18:18;6.43;;;2.30;;
62808;SDS011;48848;39.002;-94.584;2022-09-09T18:20:45;7.15;;;2.30;;
62808;SDS011;48848;39.002;-94.584;2022-09-09T18:23:21;5.78;;;2.08;;
62808;SDS011;48848;39.002;-94.584;2022-09-09T18:25:47;3.60;;;2.22;;
62808;SDS011;48848;39.002;-94.584;2022-09-09T18:28:13;4.10;;;2.15;;
62808;SDS011;48848;39.002;-94.584;2022-09-09T18:30:39;6.50;;;2.45;;
62808;SDS011;48848;39.002;-94.584;2022-09-09T18:33:05;5.50;;;2.40;;
62808;SDS011;48848;39.002;-94.584;2022-09-09T18:35:34;6.13;;;2.55;;
62808;SDS011;48848;39.002;-94.584;2022-09-09T18:38:01;3.47;;;2.20;;
62808;SDS011;48848;39.002;-94.584;2022-09-09T18:40:29;3.45;;;2.28;;
62808;SDS011;48848;39.002;-94.584;2022-09-09T18:42:56;4.32;;;2.20;;
62808;SDS011;48848;39.002;-94.584;2022-09-09T18:45:22;3.53;;;2.00;;
62808;SDS011;48848;39.002;-94.584;2022-09-09T18:47:48;10.32;;;2.35;;
62808;SDS011;48848;39.002;-94.584;2022-09-09T18:50:14;3.22;;;2.13;;
62808;SDS011;48848;39.002;-94.584;2022-09-09T18:52:41;3.97;;;1.85;;
62808;SDS011;48848;39.002;-94.584;2022-09-09T18:55:07;3.25;;;1.90;;
62808;SDS011;48848;39.002;-94.584;2022-09-09T18:57:34;3.28;;;1.90;;
62808;SDS011;48848;39.002;-94.584;2022-09-09T19:00:03;3.20;;;1.98;;
62808;SDS011;48848;39.002;-94.584;2022-09-09T19:02:31;2.70;;;1.65;;
62808;SDS011;48848;39.002;-94.584;2022-09-09T19:04:57;3.90;;;1.73;;
62808;SDS011;48848;39.002;-94.584;2022-09-09T19:07:23;2.78;;;1.67;;
62808;SDS011;48848;39.002;-94.584;2022-09-09T19:09:50;3.47;;;1.63;;
62808;SDS011;48848;39.002;-94.584;2022-09-09T19:12:16;3.55;;;1.55;;
62808;SDS011;48848;39.002;-94.584;2022-09-09T19:14:42;2.53;;;1.50;;
62808;SDS011;48848;39.002;-94.584;2022-09-09T19:17:08;2.30;;;1.50;;
62808;SDS011;48848;39.002;-94.584;2022-09-09T19:19:34;3.22;;;1.73;;
62808;SDS011;48848;39.002;-94.584;2022-09-09T19:22:01;2.67;;;1.50;;
62808;SDS011;48848;39.002;-94.584;2022-09-09T19:24:28;3.10;;;1.48;;
62808;SDS011;48848;39.002;-94.584;2022-09-09T19:27:00;2.35;;;1.50;;
62808;SDS011;48848;39.002;-94.584;2022-09-09T19:29:30;2.70;;;1.60;;
62808;SDS011;48848;39.002;-94.584;2022-09-09T19:31:58;3.80;;;1.60;;
62808;SDS011;48848;39.002;-94.584;2022-09-09T19:34:26;2.60;;;1.60;;
62808;SDS011;48848;39.002;-94.584;2022-09-09T19:36:53;3.25;;;1.50;;
62808;SDS011;48848;39.002;-94.584;2022-09-09T19:39:19;3.17;;;1.30;;
62808;SDS011;48848;39.002;-94.584;2022-09-09T19:41:46;2.30;;;1.40;;
62808;SDS011;48848;39.002;-94.584;2022-09-09T19:44:14;2.58;;;1.60;;
62808;SDS011;48848;39.002;-94.584;2022-09-09T19:46:41;2.85;;;1.50;;
62808;SDS011;48848;39.002;-94.584;2022-09-09T19:49:10;2.17;;;1.38;;
62808;SDS011;48848;39.002;-94.584;2022-09-09T19:51:36;3.40;;;1.40;;
62808;SDS011;48848;39.002;-94.584;2022-09-09T19:54:04;3.00;;;1.40;;
62808;SDS011;48848;39.002;-94.584;2022-09-09T19:56:33;2.28;;;1.30;;
62808;SDS011;48848;39.002;-94.584;2022-09-09T19:59:01;2.40;;;1.50;;
62808;SDS011;48848;39.002;-94.584;2022-09-09T20:01:29;2.28;;;1.45;;
62808;SDS011;48848;39.002;-94.584;2022-09-09T20:03:57;2.40;;;1.50;;
62808;SDS011;48848;39.002;-94.584;2022-09-09T20:06:26;2.38;;;1.48;;
62808;SDS011;48848;39.002;-94.584;2022-09-09T20:08:55;5.07;;;1.45;;
62808;SDS011;48848;39.002;-94.584;2022-09-09T20:11:22;7.78;;;1.48;;
62808;SDS011;48848;39.002;-94.584;2022-09-09T20:13:49;2.80;;;1.30;;
62808;SDS011;48848;39.002;-94.584;2022-09-09T20:16:20;6.45;;;1.50;;
62808;SDS011;48848;39.002;-94.584;2022-09-09T20:18:51;2.17;;;1.40;;
62808;SDS011;48848;39.002;-94.584;2022-09-09T20:21:25;3.90;;;1.40;;
62808;SDS011;48848;39.002;-94.584;2022-09-09T20:23:52;4.00;;;1.40;;
62808;SDS011;48848;39.002;-94.584;2022-09-09T20:26:21;2.03;;;1.30;;
62808;SDS011;48848;39.002;-94.584;2022-09-09T20:28:51;3.25;;;1.33;;
62808;SDS011;48848;39.002;-94.584;2022-09-09T20:31:19;3.72;;;1.40;;
62808;SDS011;48848;39.002;-94.584;2022-09-09T20:33:51;2.13;;;1.30;;
62808;SDS011;48848;39.002;-94.584;2022-09-09T20:36:20;13.85;;;1.50;;
62808;SDS011;48848;39.002;-94.584;2022-09-09T20:38:52;4.22;;;1.67;;
62808;SDS011;48848;39.002;-94.584;2022-09-09T20:41:20;3.92;;;1.40;;
62808;SDS011;48848;39.002;-94.584;2022-09-09T20:43:47;8.32;;;1.50;;
62808;SDS011;48848;39.002;-94.584;2022-09-09T20:46:19;2.30;;;1.27;;
62808;SDS011;48848;39.002;-94.584;2022-09-09T21:42:30;1.90;;;1.20;;
62808;SDS011;48848;39.002;-94.584;2022-09-09T22:55:59;127.60;;;54.20;;
62808;SDS011;48848;39.002;-94.584;2022-09-09T22:58:27;118.30;;;51.63;;
62808;SDS011;48848;39.002;-94.584;2022-09-09T23:00:56;104.43;;;49.47;;
62808;SDS011;48848;39.002;-94.584;2022-09-09T23:03:26;101.85;;;48.13;;
62808;SDS011;48848;39.002;-94.584;2022-09-09T23:05:54;96.45;;;45.92;;
62808;SDS011;48848;39.002;-94.584;2022-09-09T23:08:27;89.47;;;44.38;;
62808;SDS011;48848;39.002;-94.584;2022-09-09T23:10:59;83.43;;;42.15;;
62808;SDS011;48848;39.002;-94.584;2022-09-09T23:13:33;85.60;;;41.78;;
62808;SDS011;48848;39.002;-94.584;2022-09-09T23:16:07;74.82;;;38.47;;
62808;SDS011;48848;39.002;-94.584;2022-09-09T23:18:37;79.18;;;37.13;;
62808;SDS011;48848;39.002;-94.584;2022-09-09T23:21:08;71.95;;;36.55;;
62808;SDS011;48848;39.002;-94.584;2022-09-09T23:23:36;70.28;;;35.03;;
62808;SDS011;48848;39.002;-94.584;2022-09-09T23:26:06;60.63;;;32.80;;
62808;SDS011;48848;39.002;-94.584;2022-09-09T23:28:34;61.88;;;32.92;;
62808;SDS011;48848;39.002;-94.584;2022-09-09T23:31:05;58.92;;;30.33;;
62808;SDS011;48848;39.002;-94.584;2022-09-09T23:33:37;56.03;;;29.40;;
62808;SDS011;48848;39.002;-94.584;2022-09-09T23:36:05;53.60;;;27.30;;
62808;SDS011;48848;39.002;-94.584;2022-09-09T23:38:34;45.90;;;26.93;;
62808;SDS011;48848;39.002;-94.584;2022-09-09T23:50:52;35.78;;;21.63;;
62808;SDS011;48848;39.002;-94.584;2022-09-09T23:53:19;35.08;;;20.75;;
62808;SDS011;48848;39.002;-94.584;2022-09-09T23:55:46;33.03;;;20.10;;
62808;SDS011;48848;39.002;-94.584;2022-09-09T23:58:12;30.85;;;19.35;;
